createdAt,value
2018-07-10T00:00:27.698Z,0
2018-07-10T00:01:29.366Z,0
2018-07-10T00:02:31.029Z,0
2018-07-10T00:03:32.690Z,0
2018-07-10T00:04:34.354Z,0
2018-07-10T00:05:36.026Z,0
2018-07-10T00:06:37.686Z,0
2018-07-10T00:07:39.351Z,0
2018-07-10T00:08:41.010Z,0
2018-07-10T00:09:42.682Z,0
2018-07-10T00:10:44.344Z,0
2018-07-10T00:11:46.016Z,0
2018-07-10T00:12:47.681Z,0
2018-07-10T00:13:49.338Z,0
2018-07-10T00:14:51.006Z,0
2018-07-10T00:15:52.663Z,0
2018-07-10T00:16:54.335Z,0
2018-07-10T00:17:55.992Z,0
2018-07-10T00:18:57.657Z,0
2018-07-10T00:19:59.324Z,0
2018-07-10T00:21:00.992Z,0
2018-07-10T00:22:02.683Z,0
2018-07-10T00:23:04.346Z,0
2018-07-10T00:24:06.007Z,0
2018-07-10T00:25:07.674Z,0
2018-07-10T00:26:09.340Z,0
2018-07-10T00:27:10.994Z,0
2018-07-10T00:28:12.679Z,0
2018-07-10T00:29:14.343Z,0
2018-07-10T00:30:16.007Z,0
2018-07-10T00:31:17.674Z,0
2018-07-10T00:32:19.345Z,0
2018-07-10T00:33:21.005Z,0
2018-07-10T00:34:22.667Z,0
2018-07-10T00:35:24.332Z,0
2018-07-10T00:36:25.994Z,0
2018-07-10T00:37:27.658Z,0
2018-07-10T00:38:29.332Z,0
2018-07-10T00:39:30.999Z,0
2018-07-10T00:40:32.671Z,0
2018-07-10T00:41:34.333Z,0
2018-07-10T00:42:35.999Z,0
2018-07-10T00:43:37.666Z,0
2018-07-10T00:44:39.327Z,0
2018-07-10T00:45:40.997Z,0
2018-07-10T00:46:42.652Z,0
2018-07-10T00:47:44.311Z,0
2018-07-10T00:48:45.977Z,0
2018-07-10T00:49:47.633Z,0
2018-07-10T00:50:49.304Z,0
2018-07-10T00:51:50.975Z,0
2018-07-10T00:52:52.631Z,0
2018-07-10T00:53:54.292Z,0
2018-07-10T00:54:55.976Z,0
2018-07-10T00:55:57.637Z,0
2018-07-10T00:56:59.309Z,0
2018-07-10T00:58:00.973Z,0
2018-07-10T00:59:02.637Z,0
2018-07-10T01:00:04.307Z,0
2018-07-10T01:01:05.976Z,0
2018-07-10T01:02:07.645Z,0
2018-07-10T01:03:09.321Z,0
2018-07-10T01:04:10.987Z,0
2018-07-10T01:05:12.654Z,0
2018-07-10T01:06:14.315Z,0
2018-07-10T01:07:15.985Z,0
2018-07-10T01:08:17.640Z,0
2018-07-10T01:09:19.304Z,0
2018-07-10T01:10:20.967Z,0
2018-07-10T01:11:22.638Z,0
2018-07-10T01:12:24.293Z,0
2018-07-10T01:13:25.959Z,0
2018-07-10T01:14:27.636Z,0
2018-07-10T01:15:29.290Z,0
2018-07-10T01:16:30.952Z,0
2018-07-10T01:17:32.616Z,0
2018-07-10T01:18:34.277Z,0
2018-07-10T01:19:35.940Z,0
2018-07-10T01:20:37.607Z,0
2018-07-10T01:21:39.265Z,0
2018-07-10T01:22:40.927Z,0
2018-07-10T01:23:42.596Z,0
2018-07-10T01:24:44.254Z,0
2018-07-10T01:25:45.923Z,0
2018-07-10T01:26:47.589Z,0
2018-07-10T01:27:49.252Z,0
2018-07-10T01:28:50.925Z,0
2018-07-10T01:29:52.591Z,0
2018-07-10T01:30:54.270Z,0
2018-07-10T01:31:55.930Z,0
2018-07-10T01:32:57.593Z,0
2018-07-10T01:33:59.248Z,0
2018-07-10T01:35:00.914Z,0
2018-07-10T01:36:02.582Z,0
2018-07-10T01:37:04.248Z,0
2018-07-10T01:38:05.913Z,0
2018-07-10T01:39:07.576Z,0
2018-07-10T01:40:09.241Z,0
2018-07-10T01:41:10.902Z,0
2018-07-10T01:42:12.573Z,0
2018-07-10T01:43:14.231Z,0
2018-07-10T01:44:15.894Z,0
2018-07-10T01:45:17.558Z,0
2018-07-10T01:46:19.218Z,0
2018-07-10T01:47:20.884Z,0
2018-07-10T01:48:22.546Z,0
2018-07-10T01:49:24.216Z,0
2018-07-10T01:50:25.886Z,0
2018-07-10T01:51:27.539Z,0
2018-07-10T01:52:29.201Z,0
2018-07-10T01:53:30.865Z,0
2018-07-10T01:54:32.534Z,0
2018-07-10T02:01:05.548Z,0
2018-07-10T02:02:07.203Z,0
2018-07-10T02:03:59.076Z,0
2018-07-10T02:05:00.738Z,0
2018-07-10T02:06:52.566Z,0
2018-07-10T02:07:54.234Z,0
2018-07-10T02:08:55.909Z,0
2018-07-10T02:09:57.562Z,0
2018-07-10T02:10:59.227Z,0
2018-07-10T02:12:00.950Z,0
2018-07-10T02:13:02.610Z,0
2018-07-10T02:14:04.306Z,0
2018-07-10T02:15:05.961Z,0
2018-07-10T02:16:07.612Z,0
2018-07-10T02:17:09.270Z,0
2018-07-10T02:18:10.936Z,0
2018-07-10T02:19:12.599Z,0
2018-07-10T02:20:14.269Z,0
2018-07-10T02:21:15.932Z,0
2018-07-10T02:22:17.595Z,0
2018-07-10T02:23:19.257Z,0
2018-07-10T02:24:20.916Z,0
2018-07-10T02:25:22.588Z,0
2018-07-10T02:26:24.252Z,0
2018-07-10T02:27:25.932Z,0
2018-07-10T02:28:27.594Z,0
2018-07-10T02:29:29.258Z,0
2018-07-10T02:30:30.920Z,0
2018-07-10T02:31:32.577Z,0
2018-07-10T02:32:34.244Z,0
2018-07-10T02:33:35.912Z,0
2018-07-10T02:34:37.574Z,0
2018-07-10T02:35:39.241Z,0
2018-07-10T02:36:40.909Z,0
2018-07-10T02:37:42.570Z,0
2018-07-10T02:38:44.267Z,0
2018-07-10T02:39:45.930Z,0
2018-07-10T02:40:47.593Z,0
2018-07-10T02:41:49.264Z,0
2018-07-10T02:42:50.924Z,4
2018-07-10T02:43:52.586Z,4
2018-07-10T02:44:54.256Z,4
2018-07-10T02:45:55.909Z,4
2018-07-10T02:46:57.575Z,4
2018-07-10T02:47:59.238Z,4
2018-07-10T02:49:00.893Z,4
2018-07-10T02:50:02.565Z,8
2018-07-10T02:51:04.223Z,4
2018-07-10T02:52:05.896Z,8
2018-07-10T02:53:07.565Z,8
2018-07-10T02:54:09.227Z,12
2018-07-10T02:55:10.885Z,12
2018-07-10T02:56:12.548Z,12
2018-07-10T02:57:14.211Z,16
2018-07-10T02:58:15.882Z,20
2018-07-10T02:59:17.551Z,20
2018-07-10T03:00:19.212Z,24
2018-07-10T03:01:20.875Z,24
2018-07-10T03:02:22.550Z,28
2018-07-10T03:03:24.209Z,32
2018-07-10T03:04:25.883Z,36
2018-07-10T03:05:27.544Z,40
2018-07-10T03:06:29.208Z,44
2018-07-10T03:07:30.875Z,52
2018-07-10T03:08:32.548Z,64
2018-07-10T03:09:34.210Z,68
2018-07-10T03:10:35.869Z,72
2018-07-10T03:11:59.862Z,80
2018-07-10T03:12:59.055Z,84
2018-07-10T03:14:00.715Z,88
2018-07-10T03:15:02.389Z,96
2018-07-10T03:16:04.053Z,100
2018-07-10T03:17:05.722Z,116
2018-07-10T03:18:07.387Z,128
2018-07-10T03:19:09.056Z,132
2018-07-10T03:20:10.716Z,140
2018-07-10T03:21:12.378Z,152
2018-07-10T03:22:14.053Z,160
2018-07-10T03:23:15.716Z,172
2018-07-10T03:24:17.379Z,188
2018-07-10T03:25:19.055Z,200
2018-07-10T03:26:20.721Z,228
2018-07-10T03:27:22.394Z,260
2018-07-10T03:28:24.056Z,304
2018-07-10T03:29:25.725Z,340
2018-07-10T03:30:27.392Z,384
2018-07-10T03:31:29.066Z,408
2018-07-10T03:32:30.726Z,440
2018-07-10T03:33:32.395Z,476
2018-07-10T03:34:34.060Z,504
2018-07-10T03:35:35.771Z,540
2018-07-10T03:36:37.402Z,544
2018-07-10T03:37:39.079Z,540
2018-07-10T03:38:40.742Z,540
2018-07-10T03:39:42.404Z,544
2018-07-10T03:40:44.085Z,560
2018-07-10T03:41:45.746Z,568
2018-07-10T03:42:47.428Z,564
2018-07-10T03:43:49.107Z,552
2018-07-10T03:44:50.833Z,568
2018-07-10T03:45:52.449Z,612
2018-07-10T03:46:54.124Z,684
2018-07-10T03:47:55.794Z,724
2018-07-10T03:48:57.453Z,736
2018-07-10T03:49:59.114Z,764
2018-07-10T03:51:00.793Z,812
2018-07-10T03:52:02.477Z,908
2018-07-10T03:53:04.144Z,956
2018-07-10T03:54:05.870Z,984
2018-07-10T03:55:07.583Z,948
2018-07-10T03:56:09.240Z,912
2018-07-10T03:57:10.911Z,928
2018-07-10T03:58:12.577Z,972
2018-07-10T03:59:14.234Z,940
2018-07-10T04:00:15.903Z,888
2018-07-10T04:01:17.578Z,864
2018-07-10T04:02:19.244Z,928
2018-07-10T04:03:20.909Z,920
2018-07-10T04:04:22.581Z,816
2018-07-10T04:05:24.246Z,716
2018-07-10T04:06:25.914Z,700
2018-07-10T04:07:27.590Z,676
2018-07-10T04:08:29.259Z,624
2018-07-10T04:09:30.931Z,524
2018-07-10T04:10:32.596Z,484
2018-07-10T04:11:34.254Z,508
2018-07-10T04:12:35.978Z,536
2018-07-10T04:13:37.595Z,540
2018-07-10T04:14:39.269Z,560
2018-07-10T04:15:40.937Z,540
2018-07-10T04:16:42.630Z,520
2018-07-10T04:17:44.284Z,532
2018-07-10T04:18:45.938Z,544
2018-07-10T04:19:47.609Z,560
2018-07-10T04:20:49.278Z,804
2018-07-10T04:21:50.949Z,1360
2018-07-10T04:22:52.616Z,1856
2018-07-10T04:23:54.284Z,2276
2018-07-10T04:24:55.955Z,2620
2018-07-10T04:25:57.615Z,2768
2018-07-10T04:26:59.278Z,2708
2018-07-10T04:28:00.937Z,2440
2018-07-10T04:29:02.621Z,2500
2018-07-10T04:30:04.290Z,2624
2018-07-10T04:31:05.961Z,2784
2018-07-10T04:32:07.624Z,2896
2018-07-10T04:33:09.279Z,3028
2018-07-10T04:34:10.946Z,2904
2018-07-10T04:35:12.579Z,2880
2018-07-10T04:36:14.244Z,2900
2018-07-10T04:37:16.020Z,3044
2018-07-10T04:38:17.677Z,3380
2018-07-10T04:39:19.345Z,3640
2018-07-10T04:40:21.019Z,3796
2018-07-10T04:41:22.692Z,3944
2018-07-10T04:42:24.366Z,4040
2018-07-10T04:43:26.025Z,4364
2018-07-10T04:44:28.367Z,4640
2018-07-10T04:45:30.072Z,4972
2018-07-10T04:46:32.484Z,5220
2018-07-10T04:47:34.153Z,5220
2018-07-10T04:48:35.827Z,5348
2018-07-10T04:49:37.901Z,5676
2018-07-10T04:50:39.573Z,6140
2018-07-10T04:51:41.237Z,6304
2018-07-10T04:52:42.923Z,6516
2018-07-10T04:53:44.599Z,6724
2018-07-10T04:54:46.255Z,6500
2018-07-10T04:55:47.930Z,6400
2018-07-10T04:56:49.596Z,6108
2018-07-10T04:57:51.271Z,6296
2018-07-10T04:58:52.939Z,6180
2018-07-10T04:59:54.725Z,5852
2018-07-10T05:00:56.394Z,5628
2018-07-10T05:01:58.076Z,4936
2018-07-10T05:02:59.741Z,4636
2018-07-10T05:04:01.426Z,4692
2018-07-10T05:05:03.102Z,4992
2018-07-10T05:06:04.801Z,5940
2018-07-10T05:07:06.478Z,6108
2018-07-10T05:08:08.172Z,5740
2018-07-10T05:09:09.826Z,5512
2018-07-10T05:10:11.495Z,5508
2018-07-10T05:11:13.180Z,5560
2018-07-10T05:12:14.857Z,5980
2018-07-10T05:13:16.529Z,6908
2018-07-10T05:14:18.204Z,7548
2018-07-10T05:15:19.881Z,8360
2018-07-10T05:16:21.558Z,8740
2018-07-10T05:17:23.243Z,9112
2018-07-10T05:18:24.920Z,9288
2018-07-10T05:19:26.588Z,9532
2018-07-10T05:20:28.264Z,9932
2018-07-10T05:21:29.929Z,9932
2018-07-10T05:22:31.599Z,10328
2018-07-10T05:23:33.262Z,10880
2018-07-10T05:24:34.934Z,11144
2018-07-10T05:25:36.601Z,11524
2018-07-10T05:26:38.273Z,11124
2018-07-10T05:27:39.990Z,10436
2018-07-10T05:28:41.645Z,9848
2018-07-10T05:29:43.288Z,9428
2018-07-10T05:30:44.962Z,8960
2018-07-10T05:31:46.634Z,8912
2018-07-10T05:32:48.288Z,9752
2018-07-10T05:33:49.963Z,11584
2018-07-10T05:34:51.641Z,20800
2018-07-10T05:35:53.311Z,10400
2018-07-10T05:36:54.978Z,9168
2018-07-10T05:37:56.650Z,8424
2018-07-10T05:38:58.319Z,7832
2018-07-10T05:39:59.989Z,7344
2018-07-10T05:41:01.664Z,6784
2018-07-10T05:42:03.333Z,6480
2018-07-10T05:43:05.036Z,6428
2018-07-10T05:44:06.712Z,6640
2018-07-10T05:45:08.381Z,6156
2018-07-10T05:46:10.060Z,6076
2018-07-10T05:47:11.737Z,5668
2018-07-10T05:48:13.412Z,5456
2018-07-10T05:49:15.077Z,5176
2018-07-10T05:50:17.247Z,5132
2018-07-10T05:51:18.913Z,5188
2018-07-10T05:52:20.591Z,5108
2018-07-10T05:53:22.265Z,5392
2018-07-10T05:54:23.933Z,5540
2018-07-10T05:55:25.600Z,5612
2018-07-10T06:01:54.073Z,5476
2018-07-10T06:02:55.739Z,5484
2018-07-10T06:04:47.532Z,5780
2018-07-10T06:05:49.197Z,6024
2018-07-10T06:06:50.871Z,5920
2018-07-10T06:07:52.536Z,6012
2018-07-10T06:08:54.214Z,6652
2018-07-10T06:09:55.886Z,7896
2018-07-10T06:10:57.554Z,9084
2018-07-10T06:11:59.237Z,11608
2018-07-10T06:13:00.904Z,15560
2018-07-10T06:14:02.622Z,17632
2018-07-10T06:15:04.246Z,17472
2018-07-10T06:16:05.921Z,16804
2018-07-10T06:17:07.582Z,16400
2018-07-10T06:18:09.251Z,15912
2018-07-10T06:19:10.929Z,14816
2018-07-10T06:20:12.625Z,14308
2018-07-10T06:21:14.344Z,14628
2018-07-10T06:22:16.029Z,13288
2018-07-10T06:23:17.682Z,14120
2018-07-10T06:24:19.446Z,14648
2018-07-10T06:25:21.111Z,15748
2018-07-10T06:26:22.790Z,17504
2018-07-10T06:27:24.462Z,20096
2018-07-10T06:28:26.133Z,21632
2018-07-10T06:29:27.794Z,22112
2018-07-10T06:30:29.472Z,19648
2018-07-10T06:31:31.142Z,18240
2018-07-10T06:32:32.819Z,19424
2018-07-10T06:33:34.492Z,22880
2018-07-10T06:34:36.161Z,23872
2018-07-10T06:35:37.836Z,25184
2018-07-10T06:36:39.501Z,21376
2018-07-10T06:37:41.181Z,19296
2018-07-10T06:38:42.853Z,15240
2018-07-10T06:39:44.569Z,13584
2018-07-10T06:40:46.193Z,12772
2018-07-10T06:41:47.861Z,12956
2018-07-10T06:42:49.530Z,22720
2018-07-10T06:43:51.209Z,11656
2018-07-10T06:44:52.879Z,13044
2018-07-10T06:45:54.560Z,40000
2018-07-10T06:46:56.230Z,56448
2018-07-10T06:47:57.909Z,11792
2018-07-10T06:48:59.572Z,56928
2018-07-10T06:50:01.239Z,49408
2018-07-10T06:51:02.909Z,43296
2018-07-10T06:52:04.579Z,44672
2018-07-10T06:53:06.602Z,47104
2018-07-10T06:54:07.928Z,54624
2018-07-10T06:55:09.649Z,62688
2018-07-10T06:56:11.322Z,23520
2018-07-10T06:57:12.990Z,68288
2018-07-10T06:58:14.655Z,19552
2018-07-10T06:59:16.336Z,17892
2018-07-10T07:00:18.016Z,28128
2018-07-10T07:01:19.697Z,24000
2018-07-10T07:02:21.373Z,57024
2018-07-10T07:03:23.046Z,19936
2018-07-10T07:04:24.710Z,38592
2018-07-10T07:05:26.431Z,72352
2018-07-10T07:06:28.073Z,72800
2018-07-10T07:07:29.747Z,73728
2018-07-10T07:08:31.425Z,79552
2018-07-10T07:09:33.097Z,85472
2018-07-10T07:10:34.784Z,91872
2018-07-10T07:11:36.459Z,80672
2018-07-10T07:12:38.121Z,68800
2018-07-10T07:13:39.811Z,42176
2018-07-10T07:14:41.520Z,22240
2018-07-10T07:15:43.252Z,22688
2018-07-10T07:16:44.871Z,28224
2018-07-10T07:17:46.551Z,20960
2018-07-10T07:18:48.227Z,21856
2018-07-10T07:19:49.901Z,37728
2018-07-10T07:20:51.581Z,31680
2018-07-10T07:21:53.267Z,33664
2018-07-10T07:22:54.943Z,31968
2018-07-10T07:23:56.624Z,33504
2018-07-10T07:24:58.291Z,35296
2018-07-10T07:25:59.968Z,34912
2018-07-10T07:27:01.641Z,33920
2018-07-10T07:28:03.318Z,103008
2018-07-10T07:29:05.024Z,101856
2018-07-10T07:30:06.705Z,101504
2018-07-10T07:31:08.384Z,104736
2018-07-10T07:32:10.058Z,102112
2018-07-10T07:33:12.291Z,101312
2018-07-10T07:34:13.974Z,102240
2018-07-10T07:35:15.657Z,104800
2018-07-10T07:36:17.341Z,109984
2018-07-10T07:37:19.018Z,109152
2018-07-10T07:38:20.691Z,87264
2018-07-10T07:39:22.378Z,42688
2018-07-10T07:40:24.056Z,29344
2018-07-10T07:41:25.737Z,29408
2018-07-10T07:42:27.416Z,38176
2018-07-10T07:43:29.093Z,113888
2018-07-10T07:44:30.778Z,106112
2018-07-10T07:45:32.451Z,26880
2018-07-10T07:46:34.132Z,25248
2018-07-10T07:47:35.805Z,24384
2018-07-10T07:48:37.478Z,22624
2018-07-10T07:49:39.158Z,17920
2018-07-10T07:50:40.846Z,14976
2018-07-10T07:51:42.557Z,14124
2018-07-10T07:52:44.238Z,14684
2018-07-10T07:53:45.918Z,15980
2018-07-10T07:54:47.597Z,17096
2018-07-10T07:55:49.277Z,83072
2018-07-10T07:56:50.954Z,102464
2018-07-10T07:57:52.633Z,99168
2018-07-10T07:58:54.322Z,28128
2018-07-10T07:59:56.007Z,78688
2018-07-10T08:00:57.686Z,78112
2018-07-10T08:01:59.393Z,95424
2018-07-10T08:03:01.063Z,96064
2018-07-10T08:04:02.743Z,99168
2018-07-10T08:05:04.415Z,97216
2018-07-10T08:06:06.104Z,72928
2018-07-10T08:07:07.790Z,28352
2018-07-10T08:08:09.463Z,30400
2018-07-10T08:09:11.136Z,109312
2018-07-10T08:10:12.825Z,107744
2018-07-10T08:11:14.505Z,108992
2018-07-10T08:12:16.197Z,68992
2018-07-10T08:13:17.882Z,123424
2018-07-10T08:14:19.561Z,116672
2018-07-10T08:15:21.243Z,54688
2018-07-10T08:16:22.927Z,113568
2018-07-10T08:17:24.600Z,111072
2018-07-10T08:18:26.283Z,83968
2018-07-10T08:19:27.962Z,107840
2018-07-10T08:20:29.642Z,105568
2018-07-10T08:21:31.344Z,125984
2018-07-10T08:22:33.037Z,80256
2018-07-10T08:23:34.722Z,81760
2018-07-10T08:24:36.432Z,80576
2018-07-10T08:25:38.101Z,85600
2018-07-10T08:26:39.786Z,50944
2018-07-10T08:27:41.467Z,50016
2018-07-10T08:28:43.160Z,42784
2018-07-10T08:29:44.857Z,42208
2018-07-10T08:30:46.555Z,40000
2018-07-10T08:31:48.245Z,31328
2018-07-10T08:32:49.933Z,28480
2018-07-10T08:33:51.688Z,26112
2018-07-10T08:34:53.309Z,25792
2018-07-10T08:35:54.991Z,23968
2018-07-10T08:36:56.678Z,23328
2018-07-10T08:37:58.353Z,23520
2018-07-10T08:39:00.051Z,23072
2018-07-10T08:40:01.725Z,23360
2018-07-10T08:41:03.403Z,23488
2018-07-10T08:42:05.106Z,23424
2018-07-10T08:43:06.857Z,23936
2018-07-10T08:44:08.423Z,25248
2018-07-10T08:45:10.112Z,27616
2018-07-10T08:46:11.786Z,28928
2018-07-10T08:47:13.469Z,28192
2018-07-10T08:48:15.147Z,27648
2018-07-10T08:49:16.821Z,29152
2018-07-10T08:50:18.509Z,31776
2018-07-10T08:51:20.195Z,35424
2018-07-10T08:52:21.871Z,36480
2018-07-10T08:53:23.546Z,35168
2018-07-10T08:54:25.250Z,31712
2018-07-10T08:55:26.925Z,30528
2018-07-10T08:56:28.608Z,29504
2018-07-10T08:57:30.302Z,27776
2018-07-10T08:58:31.976Z,28224
2018-07-10T08:59:33.649Z,30368
2018-07-10T09:00:35.322Z,31744
2018-07-10T09:01:37.003Z,32224
2018-07-10T09:02:38.680Z,38784
2018-07-10T09:03:40.362Z,45152
2018-07-10T09:04:42.040Z,44512
2018-07-10T09:05:43.720Z,41728
2018-07-10T09:06:45.406Z,41440
2018-07-10T09:07:47.084Z,39616
2018-07-10T09:08:48.753Z,53312
2018-07-10T09:09:50.443Z,59712
2018-07-10T09:10:52.115Z,51584
2018-07-10T09:11:53.795Z,36480
2018-07-10T09:12:55.464Z,33888
2018-07-10T09:13:57.185Z,32352
2018-07-10T09:14:58.823Z,31456
2018-07-10T09:16:00.497Z,28736
2018-07-10T09:17:02.170Z,28800
2018-07-10T09:18:03.861Z,29376
2018-07-10T09:19:05.590Z,25952
2018-07-10T09:20:07.272Z,25760
2018-07-10T09:21:08.957Z,25568
2018-07-10T09:22:10.630Z,25984
2018-07-10T09:23:12.352Z,26400
2018-07-10T09:24:13.979Z,24992
2018-07-10T09:25:15.651Z,23488
2018-07-10T09:26:17.338Z,23584
2018-07-10T09:27:19.029Z,26272
2018-07-10T09:28:20.701Z,28768
2018-07-10T09:29:22.479Z,29984
2018-07-10T09:30:24.163Z,28544
2018-07-10T09:31:25.848Z,24640
2018-07-10T09:32:27.521Z,21792
2018-07-10T09:33:29.276Z,20704
2018-07-10T09:34:30.840Z,21504
2018-07-10T09:35:32.510Z,22592
2018-07-10T09:36:34.183Z,23680
2018-07-10T09:37:35.864Z,28384
2018-07-10T09:38:37.539Z,35456
2018-07-10T09:39:39.235Z,40544
2018-07-10T09:40:40.902Z,40160
2018-07-10T09:41:42.576Z,31616
2018-07-10T09:42:44.244Z,27680
2018-07-10T09:43:45.917Z,27424
2018-07-10T09:44:47.596Z,26368
2018-07-10T09:45:49.271Z,28832
2018-07-10T09:46:50.952Z,31712
2018-07-10T09:47:52.623Z,33568
2018-07-10T09:48:54.302Z,31744
2018-07-10T09:49:55.974Z,35168
2018-07-10T09:50:57.673Z,40864
2018-07-10T09:51:59.358Z,44960
2018-07-10T09:53:01.040Z,48480
2018-07-10T09:54:02.716Z,44832
2018-07-10T09:55:04.455Z,40416
2018-07-10T10:01:30.331Z,30336
2018-07-10T10:02:32.007Z,26752
2018-07-10T10:04:23.898Z,23936
2018-07-10T10:05:25.570Z,26464
2018-07-10T10:06:27.252Z,25952
2018-07-10T10:07:28.927Z,25952
2018-07-10T10:08:30.682Z,24768
2018-07-10T10:09:32.285Z,27872
2018-07-10T10:10:33.964Z,36192
2018-07-10T10:11:35.641Z,43136
2018-07-10T10:12:37.315Z,43904
2018-07-10T10:13:38.988Z,43808
2018-07-10T10:14:40.662Z,41344
2018-07-10T10:15:42.346Z,41888
2018-07-10T10:16:44.051Z,45920
2018-07-10T10:17:45.730Z,48288
2018-07-10T10:18:47.400Z,49088
2018-07-10T10:19:49.088Z,47488
2018-07-10T10:20:50.762Z,43904
2018-07-10T10:21:52.437Z,41312
2018-07-10T10:22:54.117Z,43200
2018-07-10T10:23:55.788Z,46400
2018-07-10T10:24:57.481Z,52160
2018-07-10T10:25:59.163Z,55488
2018-07-10T10:27:00.831Z,50144
2018-07-10T10:28:02.519Z,44000
2018-07-10T10:29:04.182Z,40896
2018-07-10T10:30:05.864Z,41216
2018-07-10T10:31:07.554Z,42048
2018-07-10T10:32:09.234Z,45024
2018-07-10T10:33:10.916Z,48480
2018-07-10T10:34:12.597Z,48672
2018-07-10T10:35:14.280Z,47936
2018-07-10T10:36:15.956Z,46368
2018-07-10T10:37:17.643Z,45280
2018-07-10T10:38:19.333Z,41568
2018-07-10T10:39:21.013Z,34560
2018-07-10T10:40:22.702Z,28608
2018-07-10T10:41:24.431Z,24576
2018-07-10T10:42:26.052Z,27456
2018-07-10T10:43:27.737Z,33152
2018-07-10T10:44:29.502Z,36576
2018-07-10T10:45:31.190Z,35488
2018-07-10T10:46:32.861Z,41984
2018-07-10T10:47:34.541Z,56896
2018-07-10T10:48:36.224Z,63040
2018-07-10T10:49:37.964Z,56128
2018-07-10T10:50:39.640Z,74208
2018-07-10T10:51:41.312Z,58048
2018-07-10T10:52:42.990Z,55104
2018-07-10T10:53:45.185Z,49472
2018-07-10T10:54:46.853Z,50560
2018-07-10T10:55:48.542Z,50112
2018-07-10T10:56:50.212Z,49184
2018-07-10T10:57:51.894Z,48832
2018-07-10T10:58:53.586Z,43968
2018-07-10T10:59:55.260Z,39424
2018-07-10T11:00:56.944Z,33152
2018-07-10T11:01:58.635Z,30272
2018-07-10T11:03:00.333Z,28352
2018-07-10T11:04:02.056Z,23424
2018-07-10T11:05:03.759Z,20448
2018-07-10T11:06:05.474Z,18112
2018-07-10T11:07:07.452Z,18336
2018-07-10T11:08:09.136Z,20768
2018-07-10T11:09:10.818Z,20800
2018-07-10T11:10:12.530Z,18688
2018-07-10T11:11:14.204Z,16352
2018-07-10T11:12:15.875Z,14852
2018-07-10T11:13:17.567Z,15528
2018-07-10T11:14:19.255Z,17080
2018-07-10T11:15:20.929Z,16720
2018-07-10T11:16:22.605Z,16452
2018-07-10T11:17:24.272Z,16676
2018-07-10T11:18:25.957Z,19392
2018-07-10T11:19:27.634Z,22016
2018-07-10T11:20:29.315Z,23584
2018-07-10T11:21:31.000Z,22624
2018-07-10T11:22:32.670Z,21536
2018-07-10T11:23:34.344Z,21536
2018-07-10T11:24:36.012Z,22816
2018-07-10T11:25:37.688Z,23808
2018-07-10T11:26:39.346Z,24768
2018-07-10T11:27:41.024Z,25856
2018-07-10T11:28:43.445Z,26816
2018-07-10T11:29:45.119Z,28608
2018-07-10T11:30:46.797Z,32512
2018-07-10T11:31:48.473Z,35968
2018-07-10T11:32:50.919Z,36320
2018-07-10T11:33:52.589Z,39008
2018-07-10T11:34:54.275Z,40576
2018-07-10T11:35:55.955Z,42496
2018-07-10T11:36:57.624Z,40800
2018-07-10T11:38:00.992Z,37408
2018-07-10T11:39:02.693Z,36288
2018-07-10T11:40:04.347Z,35648
2018-07-10T11:41:06.026Z,34816
2018-07-10T11:42:07.703Z,30816
2018-07-10T11:43:09.372Z,28736
2018-07-10T11:44:11.043Z,27488
2018-07-10T11:45:12.725Z,23936
2018-07-10T11:46:14.402Z,19232
2018-07-10T11:47:16.078Z,19040
2018-07-10T11:48:17.752Z,19936
2018-07-10T11:49:19.427Z,19136
2018-07-10T11:50:21.109Z,19168
2018-07-10T11:51:22.792Z,22176
2018-07-10T11:52:24.450Z,25472
2018-07-10T11:53:26.127Z,30624
2018-07-10T11:54:27.797Z,28640
2018-07-10T11:55:29.462Z,29024
2018-07-10T11:56:31.128Z,31552
2018-07-10T11:57:32.808Z,29120
2018-07-10T11:58:34.493Z,28032
2018-07-10T11:59:36.193Z,32768
2018-07-10T12:00:37.871Z,40544
2018-07-10T12:01:39.556Z,36832
2018-07-10T12:02:41.228Z,31744
2018-07-10T12:03:42.927Z,30048
2018-07-10T12:04:44.600Z,25792
2018-07-10T12:05:46.272Z,25984
2018-07-10T12:06:47.947Z,24128
2018-07-10T12:07:49.628Z,24224
2018-07-10T12:08:51.303Z,28896
2018-07-10T12:09:52.974Z,30688
2018-07-10T12:10:54.667Z,30368
2018-07-10T12:11:56.362Z,28320
2018-07-10T12:12:58.019Z,24640
2018-07-10T12:13:59.688Z,29632
2018-07-10T12:15:01.360Z,26496
2018-07-10T12:16:03.026Z,22112
2018-07-10T12:17:04.704Z,21152
2018-07-10T12:18:06.382Z,21888
2018-07-10T12:19:08.057Z,22912
2018-07-10T12:20:10.366Z,23744
2018-07-10T12:21:12.039Z,24096
2018-07-10T12:22:13.724Z,24032
2018-07-10T12:23:15.391Z,26432
2018-07-10T12:24:17.065Z,29024
2018-07-10T12:25:18.748Z,29216
2018-07-10T12:26:20.419Z,29632
2018-07-10T12:27:22.096Z,31488
2018-07-10T12:28:23.781Z,29888
2018-07-10T12:29:25.458Z,26624
2018-07-10T12:30:27.116Z,26112
2018-07-10T12:31:28.795Z,25344
2018-07-10T12:32:30.470Z,25664
2018-07-10T12:33:32.160Z,24064
2018-07-10T12:34:33.844Z,19744
2018-07-10T12:35:35.532Z,18912
2018-07-10T12:36:37.202Z,18272
2018-07-10T12:37:38.874Z,16952
2018-07-10T12:38:40.566Z,16092
2018-07-10T12:39:42.273Z,16144
2018-07-10T12:40:43.957Z,16044
2018-07-10T12:41:45.718Z,19072
2018-07-10T12:42:47.398Z,21408
2018-07-10T12:43:49.072Z,19648
2018-07-10T12:44:50.766Z,18688
2018-07-10T12:45:52.437Z,20896
2018-07-10T12:46:54.119Z,22976
2018-07-10T12:47:55.789Z,22048
2018-07-10T12:48:57.460Z,20096
2018-07-10T12:49:59.145Z,22784
2018-07-10T12:51:00.810Z,24128
2018-07-10T12:52:02.479Z,22624
2018-07-10T12:53:04.158Z,21536
2018-07-10T12:54:05.850Z,23936
2018-07-10T12:55:07.529Z,20960
2018-07-10T12:56:09.204Z,16816
2018-07-10T12:57:10.907Z,16576
2018-07-10T12:58:12.595Z,18176
2018-07-10T12:59:14.261Z,20128
2018-07-10T13:00:15.926Z,17236
2018-07-10T13:01:17.596Z,16640
2018-07-10T13:02:19.284Z,15440
2018-07-10T13:03:20.958Z,15424
2018-07-10T13:04:22.637Z,16152
2018-07-10T13:05:24.316Z,15536
2018-07-10T13:06:25.995Z,17740
2018-07-10T13:07:27.665Z,18848
2018-07-10T13:08:29.345Z,19968
2018-07-10T13:09:31.032Z,19264
2018-07-10T13:10:32.702Z,18592
2018-07-10T13:11:34.383Z,19840
2018-07-10T13:12:36.070Z,17568
2018-07-10T13:13:37.743Z,16272
2018-07-10T13:14:39.416Z,14900
2018-07-10T13:15:41.089Z,11312
2018-07-10T13:16:42.762Z,10972
2018-07-10T13:17:44.436Z,11188
2018-07-10T13:18:46.112Z,9220
2018-07-10T13:19:47.781Z,7612
2018-07-10T13:20:49.449Z,8032
2018-07-10T13:21:51.129Z,9304
2018-07-10T13:22:52.791Z,9332
2018-07-10T13:23:54.460Z,10932
2018-07-10T13:24:56.134Z,10392
2018-07-10T13:25:57.809Z,10548
2018-07-10T13:26:59.495Z,11748
2018-07-10T13:28:01.168Z,13356
2018-07-10T13:29:02.839Z,15240
2018-07-10T13:30:04.569Z,15788
2018-07-10T13:31:06.238Z,17248
2018-07-10T13:32:07.912Z,18400
2018-07-10T13:33:09.590Z,20864
2018-07-10T13:34:11.257Z,24288
2018-07-10T13:35:12.945Z,24352
2018-07-10T13:36:14.611Z,25600
2018-07-10T13:37:16.284Z,25280
2018-07-10T13:38:17.949Z,28256
2018-07-10T13:39:19.617Z,29664
2018-07-10T13:40:21.300Z,28192
2018-07-10T13:41:22.966Z,27264
2018-07-10T13:42:24.640Z,28288
2018-07-10T13:43:26.316Z,27712
2018-07-10T13:44:27.990Z,26784
2018-07-10T13:45:29.673Z,27904
2018-07-10T13:46:31.340Z,27936
2018-07-10T13:47:33.023Z,27968
2018-07-10T13:48:34.696Z,27680
2018-07-10T13:49:36.376Z,29824
2018-07-10T13:50:38.047Z,31296
2018-07-10T13:51:39.721Z,32480
2018-07-10T13:52:41.402Z,36000
2018-07-10T13:53:43.083Z,36256
2018-07-10T13:54:44.758Z,40928
2018-07-10T14:01:02.494Z,19808
2018-07-10T14:02:04.170Z,19008
2018-07-10T14:03:55.976Z,13660
2018-07-10T14:04:57.654Z,13184
2018-07-10T14:06:49.463Z,15028
2018-07-10T14:07:51.137Z,19040
2018-07-10T14:08:52.816Z,20448
2018-07-10T14:09:54.468Z,17132
2018-07-10T14:10:56.181Z,16824
2018-07-10T14:11:57.854Z,19264